Terminal Aerodrome Forecast
Issued by NWS

Home | Current Version | Previous Version | Graphics & Text | Print | Product List | Glossary On
Versions: 1 2 3 4 5 6 7 8 9 10 11 12 13 14 15 16 17 18 19 20 21 22 23 24 25 26 27 28 29
000
FTUS43 KABR 181100
TAFATY
TAF
KATY 181122Z 1812/1912 VRB04KT P6SM SKC
      TEMPO 1814/1816 BKN015
     FM181600 17013G20KT P6SM SCT250
     FM190100 17015KT P6SM BKN250=

USA.gov is the U.S. government's official web portal to all federal, state and local government web resources and services.